createdAt,value
2019-01-21T00:00:49.986Z,26.33
2019-01-21T00:01:54.812Z,25.40
2019-01-21T00:02:59.695Z,24.98
2019-01-21T00:04:04.836Z,25.77
2019-01-21T00:05:09.618Z,24.77
2019-01-21T00:06:14.783Z,23.38
2019-01-21T00:07:19.616Z,24.43
2019-01-21T00:08:24.609Z,23.00
2019-01-21T00:09:29.436Z,23.10
2019-01-21T00:10:34.506Z,19.98
2019-01-21T00:11:39.300Z,20.92
2019-01-21T00:12:44.147Z,21.68
2019-01-21T00:13:49.012Z,22.80
2019-01-21T00:14:53.785Z,21.70
2019-01-21T00:15:58.727Z,21.95
2019-01-21T00:17:03.680Z,20.95
2019-01-21T00:18:08.656Z,21.33
2019-01-21T00:19:13.536Z,21.62
2019-01-21T00:20:18.500Z,20.50
2019-01-21T00:21:23.268Z,20.72
2019-01-21T00:22:28.213Z,22.67
2019-01-21T00:23:33.072Z,21.52
2019-01-21T00:24:37.837Z,24.32
2019-01-21T00:25:42.784Z,23.18
2019-01-21T00:26:47.631Z,23.30
2019-01-21T00:27:52.364Z,25.27
2019-01-21T00:28:57.115Z,24.00
2019-01-21T00:30:02.123Z,21.25
2019-01-21T00:31:06.897Z,23.10
2019-01-21T00:32:11.757Z,20.43
2019-01-21T00:33:16.517Z,19.75
2019-01-21T00:34:21.264Z,18.00
2019-01-21T00:35:26.056Z,17.30
2019-01-21T00:36:30.932Z,16.55
2019-01-21T00:37:35.701Z,15.63
2019-01-21T00:38:40.616Z,15.75
2019-01-21T00:39:45.464Z,17.37
2019-01-21T00:40:50.253Z,18.25
2019-01-21T00:41:55.106Z,16.42
2019-01-21T00:43:00.048Z,15.45
2019-01-21T00:44:04.988Z,16.37
2019-01-21T00:45:10.137Z,16.37
2019-01-21T00:46:14.921Z,16.95
2019-01-21T00:47:19.688Z,16.37
2019-01-21T00:48:24.573Z,16.52
2019-01-21T00:49:29.409Z,17.25
2019-01-21T00:50:34.180Z,16.60
2019-01-21T00:51:39.095Z,16.15
2019-01-21T00:52:43.968Z,15.70
2019-01-21T00:53:48.716Z,15.00
2019-01-21T00:54:53.717Z,14.58
2019-01-21T00:55:58.636Z,14.75
2019-01-21T00:57:03.388Z,14.90
2019-01-21T00:58:08.244Z,15.08
2019-01-21T00:59:13.080Z,15.65
2019-01-21T01:00:26.125Z,15.88
2019-01-21T01:01:31.311Z,15.38
2019-01-21T01:02:36.268Z,15.98
2019-01-21T01:03:41.150Z,15.32
2019-01-21T01:04:46.064Z,15.25
2019-01-21T01:05:50.939Z,15.68
2019-01-21T01:06:55.820Z,16.25
2019-01-21T01:08:00.552Z,17.35
2019-01-21T01:09:08.751Z,17.02
2019-01-21T01:10:14.464Z,17.80
2019-01-21T01:11:19.371Z,17.60
2019-01-21T01:12:24.241Z,17.70
2019-01-21T01:13:29.193Z,18.07
2019-01-21T01:14:33.953Z,17.82
2019-01-21T01:15:38.978Z,18.52
2019-01-21T01:16:43.844Z,18.45
2019-01-21T01:17:48.647Z,19.02
2019-01-21T01:18:53.509Z,18.07
2019-01-21T01:19:58.396Z,17.05
2019-01-21T01:21:03.206Z,17.32
2019-01-21T01:22:08.069Z,17.73
2019-01-21T01:23:13.013Z,18.95
2019-01-21T01:24:17.740Z,17.82
2019-01-21T01:25:22.620Z,18.65
2019-01-21T01:26:27.475Z,19.65
2019-01-21T01:27:32.238Z,17.50
2019-01-21T01:28:37.095Z,21.55
2019-01-21T01:29:41.941Z,21.25
2019-01-21T01:30:46.716Z,26.75
2019-01-21T01:31:51.592Z,26.20
2019-01-21T01:32:56.468Z,24.45
2019-01-21T01:34:01.212Z,22.30
2019-01-21T01:35:07.008Z,22.45
2019-01-21T01:36:11.756Z,22.13
2019-01-21T01:37:17.644Z,25.08
2019-01-21T01:38:22.522Z,24.20
2019-01-21T01:39:27.315Z,24.10
2019-01-21T01:40:32.221Z,24.02
2019-01-21T01:41:37.056Z,22.55
2019-01-21T01:42:41.967Z,24.00
2019-01-21T01:43:46.856Z,24.75
2019-01-21T01:44:51.720Z,23.98
2019-01-21T01:45:56.611Z,23.32
2019-01-21T01:47:01.479Z,22.05
2019-01-21T01:48:07.255Z,19.95
2019-01-21T01:49:12.000Z,18.05
2019-01-21T01:50:16.936Z,17.82
2019-01-21T01:51:21.876Z,19.10
2019-01-21T01:52:26.627Z,17.90
2019-01-21T01:53:31.492Z,17.80
2019-01-21T01:54:36.387Z,17.77
2019-01-21T01:55:41.144Z,20.10
2019-01-21T01:56:46.068Z,19.92
2019-01-21T01:57:52.728Z,19.98
2019-01-21T01:58:57.672Z,17.95
2019-01-21T02:00:02.937Z,19.12
2019-01-21T02:01:08.244Z,18.37
2019-01-21T02:02:13.291Z,18.30
2019-01-21T02:03:18.027Z,18.27
2019-01-21T02:04:22.776Z,18.15
2019-01-21T02:05:27.764Z,17.40
2019-01-21T02:06:32.656Z,17.23
2019-01-21T02:07:37.452Z,16.60
2019-01-21T02:08:42.294Z,16.12
2019-01-21T02:09:47.187Z,16.12
2019-01-21T02:10:51.945Z,16.62
2019-01-21T02:11:56.792Z,16.27
2019-01-21T02:13:01.675Z,15.85
2019-01-21T02:14:06.839Z,14.90
2019-01-21T02:15:12.708Z,16.93
2019-01-21T02:16:17.552Z,15.53
2019-01-21T02:17:22.276Z,15.88
2019-01-21T02:18:27.201Z,16.17
2019-01-21T02:19:32.272Z,15.65
2019-01-21T02:20:37.828Z,15.38
2019-01-21T02:21:43.992Z,14.85
2019-01-21T02:22:50.856Z,16.73
2019-01-21T02:24:03.509Z,14.90
2019-01-21T02:25:09.099Z,14.93
2019-01-21T02:26:21.693Z,14.87
2019-01-21T02:28:03.424Z,13.83
2019-01-21T02:29:11.912Z,14.60
2019-01-21T02:31:22.068Z,15.95
2019-01-21T02:32:48.233Z,13.85
2019-01-21T02:34:17.600Z,14.60
2019-01-21T02:35:57.508Z,15.55
2019-01-21T02:37:46.021Z,14.35
2019-01-21T02:39:08.228Z,13.93
2019-01-21T02:40:56.343Z,13.58
2019-01-21T02:42:19.176Z,13.35
2019-01-21T02:44:09.617Z,14.10
2019-01-21T02:45:55.927Z,13.05
2019-01-21T02:47:36.376Z,13.60
2019-01-21T02:49:12.875Z,13.08
2019-01-21T02:50:29.067Z,12.70
2019-01-21T02:52:16.428Z,13.20
2019-01-21T02:54:17.287Z,13.90
2019-01-21T02:55:58.786Z,12.47
2019-01-21T02:57:34.641Z,13.65
2019-01-21T02:59:02.030Z,12.58
2019-01-21T03:00:57.248Z,14.55
2019-01-21T03:02:36.796Z,13.83
2019-01-21T03:03:55.793Z,13.43
2019-01-21T03:05:41.818Z,13.08
2019-01-21T03:07:30.428Z,13.32
2019-01-21T03:09:32.893Z,12.82
2019-01-21T03:11:03.450Z,11.95
2019-01-21T03:12:41.373Z,12.68
2019-01-21T03:14:21.161Z,13.30
2019-01-21T03:16:10.044Z,13.05
2019-01-21T03:17:57.312Z,12.58
2019-01-21T03:19:45.581Z,14.43
2019-01-21T03:21:43.461Z,13.30
2019-01-21T03:37:07.872Z,15.70
2019-01-21T03:39:08.729Z,14.68
2019-01-21T03:40:41.945Z,15.40
2019-01-21T03:42:36.124Z,15.05
2019-01-21T03:44:32.773Z,13.80
2019-01-21T03:46:07.968Z,13.20
2019-01-21T03:47:47.560Z,15.10
2019-01-21T03:49:17.085Z,14.68
2019-01-21T03:50:40.428Z,13.60
2019-01-21T03:52:27.632Z,13.05
2019-01-21T03:54:09.457Z,13.35
2019-01-21T03:55:16.917Z,11.97
2019-01-21T03:56:44.377Z,13.53
2019-01-21T03:58:24.652Z,13.72
2019-01-21T04:00:06.412Z,13.75
2019-01-21T04:01:21.650Z,13.38
2019-01-21T04:03:16.196Z,13.50
2019-01-21T04:05:12.317Z,12.03
2019-01-21T04:07:10.304Z,12.18
2019-01-21T04:08:43.797Z,10.90
2019-01-21T04:10:44.724Z,12.15
2019-01-21T04:12:28.210Z,12.18
2019-01-21T04:13:58.409Z,12.80
2019-01-21T04:15:40.044Z,12.70
2019-01-21T04:17:21.088Z,12.37
2019-01-21T04:18:48.409Z,12.47
2019-01-21T04:20:31.810Z,11.88
2019-01-21T04:22:20.627Z,11.35
2019-01-21T04:23:54.830Z,12.23
2019-01-21T04:25:34.441Z,11.25
2019-01-21T04:27:02.889Z,11.28
2019-01-21T04:28:54.356Z,11.03
2019-01-21T04:30:34.196Z,10.95
2019-01-21T04:32:47.070Z,10.72
2019-01-21T04:34:34.313Z,10.48
2019-01-21T04:35:51.559Z,10.58
2019-01-21T04:37:29.040Z,10.82
2019-01-21T04:39:07.879Z,10.43
2019-01-21T04:40:44.517Z,10.43
2019-01-21T04:42:27.632Z,10.75
2019-01-21T04:44:03.153Z,10.70
2019-01-21T04:45:26.575Z,9.40
2019-01-21T04:47:13.644Z,9.88
2019-01-21T04:48:58.913Z,9.45
2019-01-21T04:50:22.080Z,10.72
2019-01-21T04:51:53.657Z,11.63
2019-01-21T04:53:33.084Z,12.43
2019-01-21T04:55:13.153Z,11.48
2019-01-21T04:57:08.345Z,11.85
2019-01-21T04:58:51.287Z,12.30
2019-01-21T05:00:32.708Z,12.95
2019-01-21T05:02:16.985Z,13.50
2019-01-21T05:04:17.764Z,13.83
2019-01-21T05:05:49.784Z,12.85
2019-01-21T05:07:25.457Z,13.83
2019-01-21T05:09:08.293Z,13.95
2019-01-21T05:10:51.892Z,15.98
2019-01-21T05:12:33.233Z,15.53
2019-01-21T05:14:18.264Z,14.83
2019-01-21T05:15:53.542Z,12.73
2019-01-21T05:17:34.122Z,11.60
2019-01-21T05:19:33.288Z,12.25
2019-01-21T05:21:08.963Z,10.72
2019-01-21T05:22:44.401Z,11.25
2019-01-21T05:24:26.628Z,10.88
2019-01-21T05:26:00.717Z,11.97
2019-01-21T05:28:01.362Z,11.08
2019-01-21T05:29:39.768Z,12.75
2019-01-21T05:31:43.726Z,12.07
2019-01-21T05:33:34.445Z,11.08
2019-01-21T05:35:35.448Z,10.85
2019-01-21T05:37:30.896Z,11.28
2019-01-21T05:39:08.676Z,11.68
2019-01-21T05:40:59.147Z,12.45
2019-01-21T05:42:53.934Z,12.30
2019-01-21T05:44:44.820Z,12.70
2019-01-21T05:46:27.871Z,12.20
2019-01-21T05:48:16.016Z,12.10
2019-01-21T05:50:00.918Z,13.60
2019-01-21T05:51:47.964Z,14.23
2019-01-21T05:53:44.716Z,13.25
2019-01-21T05:55:26.356Z,11.93
2019-01-21T05:57:30.234Z,11.43
2019-01-21T05:59:06.914Z,13.00
2019-01-21T06:01:03.671Z,12.03
2019-01-21T06:02:50.929Z,11.60
2019-01-21T06:04:31.209Z,12.03
2019-01-21T06:06:25.544Z,12.18
2019-01-21T06:08:09.435Z,12.80
2019-01-21T06:09:24.304Z,11.63
2019-01-21T06:11:08.269Z,12.00
2019-01-21T06:13:02.364Z,12.13
2019-01-21T06:14:31.764Z,10.58
2019-01-21T06:16:32.321Z,10.80
2019-01-21T06:18:00.745Z,11.12
2019-01-21T06:19:51.565Z,12.00
2019-01-21T06:21:36.145Z,11.50
2019-01-21T06:23:26.673Z,11.38
2019-01-21T06:25:05.520Z,11.83
2019-01-21T06:26:56.322Z,11.25
2019-01-21T06:28:54.449Z,12.88
2019-01-21T06:30:30.892Z,11.48
2019-01-21T06:32:07.360Z,12.28
2019-01-21T06:33:47.538Z,11.40
2019-01-21T06:35:37.721Z,10.43
2019-01-21T06:37:14.842Z,10.72
2019-01-21T06:38:41.829Z,10.85
2019-01-21T06:40:02.157Z,11.08
2019-01-21T06:41:46.024Z,12.60
2019-01-21T06:43:18.746Z,12.00
2019-01-21T06:45:25.764Z,10.93
2019-01-21T06:47:13.612Z,12.35
2019-01-21T06:49:05.684Z,11.80
2019-01-21T06:50:38.616Z,10.48
2019-01-21T06:52:45.457Z,10.78
2019-01-21T06:54:27.800Z,12.53
2019-01-21T06:56:22.405Z,11.55
2019-01-21T06:58:14.228Z,11.25
2019-01-21T06:59:47.844Z,11.80
2019-01-21T07:01:55.049Z,12.23
2019-01-21T07:03:40.408Z,12.35
2019-01-21T07:05:12.975Z,11.80
2019-01-21T07:06:58.715Z,12.98
2019-01-21T07:08:40.211Z,12.35
2019-01-21T07:10:18.656Z,11.75
2019-01-21T07:11:55.250Z,12.28
2019-01-21T07:13:37.500Z,12.70
2019-01-21T07:15:26.560Z,12.93
2019-01-21T07:17:33.593Z,11.75
2019-01-21T07:19:17.628Z,12.68
2019-01-21T07:21:02.821Z,12.78
2019-01-21T07:22:45.475Z,13.15
2019-01-21T07:24:22.773Z,14.05
2019-01-21T07:26:03.944Z,13.72
2019-01-21T07:27:53.247Z,13.55
2019-01-21T07:29:47.789Z,12.88
2019-01-21T07:31:33.129Z,14.40
2019-01-21T07:33:10.536Z,13.68
2019-01-21T07:34:39.815Z,13.93
2019-01-21T07:36:33.220Z,12.82
2019-01-21T07:38:18.368Z,13.72
2019-01-21T07:40:07.900Z,12.85
2019-01-21T07:41:35.269Z,12.75
2019-01-21T07:43:21.896Z,13.22
2019-01-21T07:45:05.114Z,13.88
2019-01-21T07:47:00.236Z,13.13
2019-01-21T07:48:28.032Z,14.13
2019-01-21T07:50:38.237Z,14.45
2019-01-21T07:52:19.876Z,13.78
2019-01-21T07:53:58.453Z,13.35
2019-01-21T07:55:34.972Z,12.90
2019-01-21T07:57:17.851Z,13.60
2019-01-21T07:58:58.587Z,13.90
2019-01-21T08:00:30.469Z,13.50
2019-01-21T08:01:46.119Z,13.43
2019-01-21T08:03:49.865Z,13.18
2019-01-21T08:05:36.832Z,12.82
2019-01-21T08:07:25.925Z,13.05
2019-01-21T08:09:21.097Z,12.73
2019-01-21T08:11:08.657Z,13.08
2019-01-21T08:12:57.091Z,12.93
2019-01-21T08:15:13.521Z,13.45
2019-01-21T08:16:53.834Z,13.45
2019-01-21T08:18:34.684Z,12.23
2019-01-21T08:20:14.832Z,14.05
2019-01-21T08:21:56.693Z,14.55
2019-01-21T08:23:51.771Z,13.75
2019-01-21T08:25:55.928Z,13.45
2019-01-21T08:27:28.150Z,13.45
2019-01-21T08:29:14.471Z,13.30
2019-01-21T08:30:39.529Z,13.08
2019-01-21T08:32:05.154Z,13.60
2019-01-21T08:34:18.310Z,13.38
2019-01-21T08:35:58.694Z,13.70
2019-01-21T08:37:47.505Z,12.78
2019-01-21T08:39:31.234Z,13.35
2019-01-21T08:41:20.605Z,13.20
2019-01-21T08:42:45.337Z,12.78
2019-01-21T08:44:15.261Z,13.78
2019-01-21T08:45:50.725Z,14.25
2019-01-21T08:47:23.653Z,13.95
2019-01-21T08:49:04.355Z,14.63
2019-01-21T08:51:05.012Z,14.20
2019-01-21T08:52:38.512Z,13.65
2019-01-21T08:54:18.394Z,13.72
2019-01-21T08:55:50.576Z,12.73
2019-01-21T08:57:38.704Z,13.32
2019-01-21T08:59:00.977Z,14.28
2019-01-21T09:00:50.149Z,13.55
2019-01-21T09:02:34.749Z,14.53
2019-01-21T09:04:26.516Z,12.75
2019-01-21T09:06:12.252Z,13.05
2019-01-21T09:07:55.196Z,12.88
2019-01-21T09:09:31.162Z,13.13
2019-01-21T09:11:38.024Z,13.18
2019-01-21T09:13:19.406Z,12.53
2019-01-21T09:15:08.442Z,12.95
2019-01-21T09:16:40.509Z,13.25
2019-01-21T09:18:30.755Z,12.03
2019-01-21T09:20:01.213Z,13.45
2019-01-21T09:21:44.399Z,14.35
2019-01-21T09:23:12.688Z,15.35
2019-01-21T09:24:41.918Z,14.13
2019-01-21T09:26:11.908Z,14.38
2019-01-21T09:27:43.033Z,14.47
2019-01-21T09:29:33.536Z,14.70
2019-01-21T09:31:14.155Z,14.10
2019-01-21T09:32:54.775Z,14.38
2019-01-21T09:34:23.817Z,15.18
2019-01-21T09:35:42.004Z,14.83
2019-01-21T09:37:09.686Z,14.03
2019-01-21T09:39:00.182Z,15.08
2019-01-21T09:40:32.080Z,14.18
2019-01-21T09:42:15.909Z,13.58
2019-01-21T09:43:45.512Z,13.22
2019-01-21T09:45:52.648Z,14.10
2019-01-21T09:46:55.719Z,13.55
2019-01-21T09:47:58.780Z,13.20
2019-01-21T09:49:01.815Z,12.35
2019-01-21T09:50:07.430Z,13.00
2019-01-21T09:51:13.315Z,13.15
2019-01-21T09:52:22.808Z,12.98
2019-01-21T09:53:30.226Z,12.88
2019-01-21T09:54:36.447Z,12.07
2019-01-21T09:55:42.949Z,11.20
2019-01-21T09:56:48.898Z,12.23
2019-01-21T09:58:05.807Z,11.45
2019-01-21T09:59:11.256Z,11.28
2019-01-21T10:00:19.210Z,11.03
2019-01-21T10:01:26.927Z,10.55
2019-01-21T10:02:46.392Z,12.05
2019-01-21T10:03:52.344Z,11.38
2019-01-21T10:05:03.746Z,11.38
2019-01-21T10:06:10.204Z,11.22
2019-01-21T10:07:45.677Z,11.88
2019-01-21T10:09:27.720Z,10.55
2019-01-21T10:11:35.214Z,11.08
2019-01-21T10:13:33.866Z,11.63
2019-01-21T10:15:11.884Z,10.43
2019-01-21T10:17:00.128Z,10.82
2019-01-21T10:18:39.781Z,10.75
2019-01-21T10:20:16.589Z,11.08
2019-01-21T10:22:00.177Z,10.15
2019-01-21T10:23:52.025Z,11.63
2019-01-21T10:25:28.390Z,9.98
2019-01-21T10:27:17.448Z,10.68
2019-01-21T10:28:52.873Z,10.55
2019-01-21T10:30:44.215Z,11.00
2019-01-21T10:32:15.840Z,10.80
2019-01-21T10:34:10.765Z,12.07
2019-01-21T10:35:39.895Z,14.13
2019-01-21T10:37:27.495Z,16.25
2019-01-21T10:39:16.585Z,13.65
2019-01-21T10:41:01.325Z,13.32
2019-01-21T10:42:45.682Z,15.00
2019-01-21T10:44:35.308Z,15.98
2019-01-21T10:46:21.425Z,13.53
2019-01-21T10:48:04.902Z,13.25
2019-01-21T10:50:06.658Z,15.90
2019-01-21T10:51:41.890Z,13.83
2019-01-21T10:53:34.410Z,13.35
2019-01-21T10:55:23.364Z,13.22
2019-01-21T10:56:43.532Z,13.13
2019-01-21T10:58:10.597Z,13.30
2019-01-21T10:59:53.768Z,13.32
2019-01-21T11:01:48.497Z,13.25
2019-01-21T11:03:52.448Z,16.42
2019-01-21T11:05:39.912Z,14.23
2019-01-21T11:07:16.862Z,16.80
2019-01-21T11:08:53.976Z,12.75
2019-01-21T11:10:08.804Z,15.05
2019-01-21T11:11:42.400Z,13.95
2019-01-21T11:13:23.393Z,11.85
2019-01-21T11:15:21.669Z,12.53
2019-01-21T11:16:55.945Z,13.28
2019-01-21T11:18:06.243Z,13.80
2019-01-21T11:20:03.785Z,14.07
2019-01-21T11:21:53.077Z,15.30
2019-01-21T11:23:22.106Z,14.05
2019-01-21T11:25:07.838Z,14.33
2019-01-21T11:26:58.788Z,13.98
2019-01-21T11:28:22.297Z,12.95
2019-01-21T11:29:42.756Z,15.83
2019-01-21T11:31:15.746Z,15.80
2019-01-21T11:32:52.482Z,15.55
2019-01-21T11:34:35.827Z,14.80
2019-01-21T11:36:30.448Z,13.25
2019-01-21T11:38:16.180Z,11.75
2019-01-21T11:39:58.568Z,11.97
2019-01-21T11:41:47.808Z,11.45
2019-01-21T11:43:38.642Z,11.73
2019-01-21T11:45:29.070Z,10.90
2019-01-21T11:46:58.157Z,12.37
2019-01-21T11:48:43.157Z,12.15
2019-01-21T11:50:00.785Z,13.25
2019-01-21T11:51:55.915Z,12.80
2019-01-21T11:53:22.284Z,11.68
2019-01-21T11:55:07.996Z,12.28
2019-01-21T11:56:18.983Z,14.47
2019-01-21T11:58:05.200Z,12.65
2019-01-21T11:59:34.639Z,12.23
2019-01-21T12:00:59.708Z,12.15
2019-01-21T12:02:30.749Z,13.58
2019-01-21T12:03:51.707Z,13.75
2019-01-21T12:05:21.010Z,13.13
2019-01-21T12:06:35.837Z,13.20
2019-01-21T12:08:04.389Z,14.55
2019-01-21T12:09:50.912Z,14.20
2019-01-21T12:11:50.480Z,15.28
2019-01-21T12:13:24.179Z,14.35
2019-01-21T12:15:10.955Z,14.50
2019-01-21T12:16:55.694Z,14.25
2019-01-21T12:18:45.092Z,16.50
2019-01-21T12:20:32.928Z,15.78
2019-01-21T12:22:09.830Z,15.23
2019-01-21T12:23:42.131Z,14.20
2019-01-21T12:25:18.976Z,14.38
2019-01-21T12:27:01.061Z,14.90
2019-01-21T12:28:53.930Z,15.03
2019-01-21T12:31:00.708Z,14.83
2019-01-21T12:33:00.679Z,14.90
2019-01-21T12:34:50.816Z,15.20
2019-01-21T12:36:03.086Z,15.63
2019-01-21T12:37:25.363Z,15.93
2019-01-21T12:39:38.604Z,15.70
2019-01-21T12:41:13.525Z,15.53
2019-01-21T12:42:55.102Z,20.05
2019-01-21T12:44:42.130Z,17.05
2019-01-21T12:46:27.805Z,16.65
2019-01-21T12:47:42.837Z,16.25
2019-01-21T12:49:23.336Z,16.77
2019-01-21T12:50:59.508Z,16.05
2019-01-21T12:52:24.617Z,18.20
2019-01-21T12:54:00.753Z,18.05
2019-01-21T12:55:37.892Z,17.30
2019-01-21T12:57:08.807Z,16.52
2019-01-21T12:59:00.025Z,16.70
2019-01-21T13:00:54.861Z,15.88
2019-01-21T13:02:17.356Z,17.70
2019-01-21T13:03:50.372Z,17.48
2019-01-21T13:05:14.033Z,20.20
2019-01-21T13:07:00.928Z,19.95
2019-01-21T13:08:14.760Z,19.48
2019-01-21T13:09:48.196Z,20.45
2019-01-21T13:11:19.347Z,18.73
2019-01-21T13:13:01.784Z,19.98
2019-01-21T13:14:38.501Z,20.48
2019-01-21T13:15:55.623Z,24.32
2019-01-21T13:17:41.846Z,22.13
2019-01-21T13:19:21.737Z,17.77
2019-01-21T13:21:07.352Z,18.77
2019-01-21T13:22:58.812Z,18.98
2019-01-21T13:24:48.542Z,18.37
2019-01-21T13:26:21.650Z,18.73
2019-01-21T13:28:09.940Z,18.35
2019-01-21T13:29:41.198Z,19.25
2019-01-21T13:31:22.964Z,18.35
2019-01-21T13:33:01.235Z,19.40
2019-01-21T13:34:56.217Z,18.82
2019-01-21T13:36:15.884Z,24.27
2019-01-21T13:37:35.529Z,25.65
2019-01-21T13:39:18.874Z,29.50
2019-01-21T13:41:13.790Z,22.80
2019-01-21T13:42:37.725Z,24.10
2019-01-21T13:44:12.375Z,22.50
2019-01-21T13:45:40.180Z,18.35
2019-01-21T13:47:16.988Z,18.98
2019-01-21T13:48:53.842Z,18.70
2019-01-21T13:50:10.014Z,18.95
2019-01-21T13:52:04.273Z,20.45
2019-01-21T13:53:41.137Z,18.55
2019-01-21T13:55:24.888Z,24.32
2019-01-21T13:56:47.700Z,19.02
2019-01-21T13:58:37.330Z,19.50
2019-01-21T14:00:20.270Z,21.55
2019-01-21T14:01:59.177Z,23.75
2019-01-21T14:03:58.664Z,19.10
2019-01-21T14:05:32.015Z,16.17
2019-01-21T14:06:46.544Z,16.85
2019-01-21T14:08:38.049Z,17.10
2019-01-21T14:10:18.617Z,17.92
2019-01-21T14:12:06.849Z,17.62
2019-01-21T14:13:39.069Z,16.60
2019-01-21T14:15:21.672Z,17.20
2019-01-21T14:16:53.502Z,16.25
2019-01-21T14:18:35.013Z,15.68
2019-01-21T14:19:58.421Z,16.87
2019-01-21T14:21:33.886Z,16.57
2019-01-21T14:23:10.025Z,16.55
2019-01-21T14:24:45.035Z,16.25
2019-01-21T14:26:15.233Z,16.77
2019-01-21T14:27:49.669Z,16.40
2019-01-21T14:29:26.444Z,17.32
2019-01-21T14:31:03.370Z,17.45
2019-01-21T14:32:55.188Z,17.60
2019-01-21T14:34:32.095Z,17.73
2019-01-21T14:36:05.080Z,19.07
2019-01-21T14:38:01.592Z,20.90
2019-01-21T14:40:02.315Z,21.12
2019-01-21T14:41:30.002Z,20.85
2019-01-21T14:43:08.522Z,21.10
2019-01-21T14:44:56.650Z,21.15
2019-01-21T14:46:51.117Z,23.47
2019-01-21T14:48:30.044Z,21.30
2019-01-21T14:50:01.505Z,23.47
2019-01-21T14:51:49.228Z,22.98
2019-01-21T14:53:32.423Z,22.02
2019-01-21T14:55:12.106Z,22.42
2019-01-21T14:56:42.248Z,22.52
2019-01-21T14:58:27.998Z,22.75
2019-01-21T14:59:57.188Z,22.30
2019-01-21T15:01:29.983Z,20.90
2019-01-21T15:03:08.095Z,21.30
2019-01-21T15:04:50.163Z,21.07
2019-01-21T15:06:25.412Z,19.87
2019-01-21T15:07:45.355Z,20.75
2019-01-21T15:09:20.749Z,21.90
2019-01-21T15:10:43.586Z,21.45
2019-01-21T15:12:21.677Z,20.75
2019-01-21T15:13:53.149Z,21.93
2019-01-21T15:15:24.443Z,20.23
2019-01-21T15:17:10.195Z,21.27
2019-01-21T15:18:59.140Z,21.68
2019-01-21T15:20:21.044Z,21.82
2019-01-21T15:21:59.981Z,21.55
2019-01-21T15:23:24.564Z,22.35
2019-01-21T15:25:24.587Z,23.18
2019-01-21T15:26:56.861Z,21.25
2019-01-21T15:28:41.012Z,22.60
2019-01-21T15:30:17.072Z,21.65
2019-01-21T15:31:57.606Z,21.80
2019-01-21T15:33:33.553Z,21.27
2019-01-21T15:34:56.368Z,22.22
2019-01-21T15:36:35.136Z,22.42
2019-01-21T15:38:24.989Z,20.82
2019-01-21T15:39:57.046Z,20.27
2019-01-21T15:41:39.424Z,20.92
2019-01-21T15:43:21.462Z,20.40
2019-01-21T15:45:25.298Z,21.33
2019-01-21T15:47:13.856Z,21.55
2019-01-21T15:48:56.066Z,22.40
2019-01-21T15:50:39.492Z,24.43
2019-01-21T15:52:40.273Z,24.45
2019-01-21T15:54:29.500Z,25.20
2019-01-21T15:55:52.687Z,24.25
2019-01-21T15:57:26.089Z,23.77
2019-01-21T15:59:33.114Z,24.92
2019-01-21T16:01:15.848Z,26.30
2019-01-21T16:02:32.492Z,29.10
2019-01-21T16:03:50.986Z,34.03
2019-01-21T16:05:54.867Z,36.40
2019-01-21T16:07:46.104Z,37.20
2019-01-21T16:09:27.431Z,37.95
2019-01-21T16:11:12.193Z,30.80
2019-01-21T16:13:02.772Z,30.68
2019-01-21T16:14:11.683Z,28.40
2019-01-21T16:15:48.691Z,29.23
2019-01-21T16:17:40.520Z,30.60
2019-01-21T16:19:00.216Z,28.27
2019-01-21T16:20:21.232Z,27.52
2019-01-21T16:22:12.842Z,28.25
2019-01-21T16:23:53.252Z,27.60
2019-01-21T16:25:26.274Z,24.75
2019-01-21T16:26:50.274Z,25.80
2019-01-21T16:28:57.616Z,26.73
2019-01-21T16:30:21.294Z,24.10
2019-01-21T16:31:33.481Z,25.77
2019-01-21T16:33:09.012Z,27.87
2019-01-21T16:35:05.120Z,27.87
2019-01-21T16:36:29.545Z,33.63
2019-01-21T16:38:04.704Z,34.95
2019-01-21T16:39:35.473Z,34.48
2019-01-21T16:41:17.499Z,37.03
2019-01-21T16:42:20.673Z,32.98
2019-01-21T16:43:25.818Z,43.48
2019-01-21T16:44:30.856Z,48.23
2019-01-21T16:45:35.917Z,43.00
2019-01-21T16:46:41.298Z,49.10
2019-01-21T16:47:46.498Z,42.62
2019-01-21T16:48:51.926Z,36.25
2019-01-21T16:49:57.072Z,34.03
2019-01-21T16:51:02.246Z,31.35
2019-01-21T16:52:07.186Z,29.48
2019-01-21T16:53:12.215Z,32.83
2019-01-21T16:54:17.105Z,28.38
2019-01-21T16:55:22.332Z,26.05
2019-01-21T16:56:27.597Z,26.50
2019-01-21T16:57:32.774Z,28.00
2019-01-21T16:58:37.827Z,24.80
2019-01-21T16:59:43.138Z,25.60
2019-01-21T17:00:48.228Z,23.42
2019-01-21T17:01:53.301Z,24.80
2019-01-21T17:02:58.305Z,26.07
2019-01-21T17:04:03.321Z,27.40
2019-01-21T17:05:09.475Z,25.27
2019-01-21T17:06:14.439Z,26.52
2019-01-21T17:07:19.737Z,25.12
2019-01-21T17:08:24.850Z,24.85
2019-01-21T17:09:29.957Z,26.37
2019-01-21T17:10:39.136Z,25.77
2019-01-21T17:11:41.738Z,28.15
2019-01-21T17:12:46.716Z,28.02
2019-01-21T17:13:52.150Z,28.17
2019-01-21T17:14:57.811Z,26.48
2019-01-21T17:16:03.330Z,28.23
2019-01-21T17:17:08.642Z,28.50
2019-01-21T17:18:13.861Z,28.07
2019-01-21T17:19:18.798Z,24.35
2019-01-21T17:20:24.101Z,24.30
2019-01-21T17:21:29.111Z,23.77
2019-01-21T17:22:34.240Z,23.90
2019-01-21T17:23:39.169Z,24.70
2019-01-21T17:24:44.289Z,24.32
2019-01-21T17:25:49.431Z,22.77
2019-01-21T17:26:54.687Z,24.02
2019-01-21T17:27:59.881Z,23.67
2019-01-21T17:29:05.192Z,24.70
2019-01-21T17:30:12.358Z,25.23
2019-01-21T17:31:17.283Z,26.73
2019-01-21T17:32:23.255Z,28.87
2019-01-21T17:33:29.001Z,30.05
2019-01-21T17:34:34.326Z,29.77
2019-01-21T17:35:39.432Z,32.38
2019-01-21T17:36:46.248Z,34.20
2019-01-21T17:37:51.443Z,35.52
2019-01-21T17:38:56.751Z,34.40
2019-01-21T17:40:04.608Z,35.28
2019-01-21T17:41:09.958Z,34.50
2019-01-21T17:42:14.978Z,33.08
2019-01-21T17:43:20.162Z,35.52
2019-01-21T17:44:25.073Z,33.58
2019-01-21T17:45:30.068Z,31.07
2019-01-21T17:46:35.064Z,31.55
2019-01-21T17:47:40.074Z,31.65
2019-01-21T17:48:45.017Z,29.60
2019-01-21T17:49:50.173Z,26.70
2019-01-21T17:50:55.410Z,27.07
2019-01-21T17:52:00.593Z,27.07
2019-01-21T17:53:05.886Z,26.48
2019-01-21T17:54:11.157Z,26.55
2019-01-21T17:55:16.570Z,26.37
2019-01-21T17:56:21.809Z,27.25
2019-01-21T17:57:27.151Z,27.70
2019-01-21T17:58:32.294Z,28.05
2019-01-21T17:59:37.353Z,29.52
2019-01-21T18:00:42.306Z,30.45
2019-01-21T18:01:47.708Z,30.40
2019-01-21T18:02:53.138Z,31.12
2019-01-21T18:03:58.201Z,31.95
2019-01-21T18:05:03.678Z,32.95
2019-01-21T18:06:09.004Z,34.27
2019-01-21T18:07:14.040Z,36.40
2019-01-21T18:08:19.341Z,37.28
2019-01-21T18:09:24.462Z,37.08
2019-01-21T18:10:29.760Z,38.83
2019-01-21T18:11:37.765Z,41.13
2019-01-21T18:12:41.699Z,42.15
2019-01-21T18:13:47.182Z,41.65
2019-01-21T18:14:52.404Z,44.03
2019-01-21T18:15:57.900Z,44.65
2019-01-21T18:17:03.473Z,42.83
2019-01-21T18:18:08.763Z,40.28
2019-01-21T18:19:15.077Z,45.23
2019-01-21T18:20:22.973Z,48.08
2019-01-21T18:21:28.133Z,45.80
2019-01-21T18:22:33.632Z,45.58
2019-01-21T18:23:38.768Z,45.12
2019-01-21T18:24:43.819Z,45.38
2019-01-21T18:25:48.848Z,48.00
2019-01-21T18:26:53.918Z,53.40
2019-01-21T18:27:59.231Z,51.18
2019-01-21T18:29:04.645Z,49.00
2019-01-21T18:30:13.309Z,48.30
2019-01-21T18:31:18.509Z,46.63
2019-01-21T18:32:23.545Z,47.17
2019-01-21T18:33:28.669Z,45.92
2019-01-21T18:34:33.817Z,42.90
2019-01-21T18:35:38.906Z,49.73
2019-01-21T18:36:44.063Z,48.92
2019-01-21T18:37:49.301Z,45.15
2019-01-21T18:38:54.439Z,42.73
2019-01-21T18:39:59.736Z,39.60
2019-01-21T18:41:04.968Z,41.23
2019-01-21T18:42:10.047Z,43.00
2019-01-21T18:43:15.312Z,41.73
2019-01-21T18:44:20.641Z,43.38
2019-01-21T18:45:27.532Z,42.95
2019-01-21T18:46:32.478Z,38.13
2019-01-21T18:47:37.652Z,39.10
2019-01-21T18:48:42.871Z,38.53
2019-01-21T18:49:47.981Z,38.58
2019-01-21T18:50:52.980Z,36.70
2019-01-21T18:51:58.040Z,35.25
2019-01-21T18:53:03.081Z,37.38
2019-01-21T18:54:08.482Z,46.00
2019-01-21T18:55:13.706Z,37.45
2019-01-21T18:56:18.887Z,38.53
2019-01-21T18:57:24.059Z,55.67
2019-01-21T18:58:29.056Z,102.40
2019-01-21T18:59:34.007Z,86.05
2019-01-21T19:00:39.126Z,78.78
2019-01-21T19:01:44.146Z,53.35
2019-01-21T19:02:49.303Z,42.15
2019-01-21T19:03:54.709Z,42.73
2019-01-21T19:04:59.893Z,48.95